createdAt,value
2018-05-13T00:01:31.168Z,24.00
2018-05-13T00:03:58.616Z,23.80
2018-05-13T00:06:26.841Z,26.57
2018-05-13T00:08:54.320Z,22.03
2018-05-13T00:11:21.810Z,25.03
2018-05-13T00:13:49.312Z,25.67
2018-05-13T00:16:16.832Z,24.10
2018-05-13T00:18:44.306Z,25.00
2018-05-13T00:21:11.784Z,24.40
2018-05-13T00:23:39.248Z,24.13
2018-05-13T00:26:06.929Z,25.00
2018-05-13T00:28:34.643Z,24.70
2018-05-13T00:31:02.122Z,24.50
2018-05-13T00:33:29.605Z,25.17
2018-05-13T00:35:57.085Z,24.67
2018-05-13T00:38:24.586Z,25.37
2018-05-13T00:40:52.043Z,27.17
2018-05-13T00:43:19.515Z,25.17
2018-05-13T00:45:46.993Z,25.97
2018-05-13T00:48:14.481Z,23.07
2018-05-13T00:50:42.045Z,25.47
2018-05-13T00:53:09.440Z,25.50
2018-05-13T00:55:36.903Z,26.37
2018-05-13T00:58:04.392Z,28.20
2018-05-13T01:00:31.853Z,27.73
2018-05-13T01:02:59.307Z,26.00
2018-05-13T01:05:26.796Z,21.87
2018-05-13T01:07:55.020Z,29.33
2018-05-13T01:10:22.480Z,27.27
2018-05-13T01:12:49.964Z,26.87
2018-05-13T01:15:17.445Z,17.77
2018-05-13T01:17:45.668Z,28.50
2018-05-13T01:20:13.143Z,25.30
2018-05-13T01:22:40.605Z,26.30
2018-05-13T01:25:08.088Z,27.60
2018-05-13T01:27:35.554Z,25.30
2018-05-13T01:30:03.892Z,29.53
2018-05-13T01:32:31.359Z,29.00
2018-05-13T01:34:58.845Z,28.77
2018-05-13T01:37:27.096Z,25.00
2018-05-13T01:39:54.556Z,31.10
2018-05-13T01:42:22.022Z,31.00
2018-05-13T01:44:49.510Z,27.80
2018-05-13T01:47:16.963Z,27.17
2018-05-13T01:49:44.443Z,30.27
2018-05-13T01:52:11.911Z,29.37
2018-05-13T01:54:39.573Z,23.73
2018-05-13T01:57:07.059Z,28.40
2018-05-13T01:59:34.544Z,25.93
2018-05-13T02:02:02.030Z,25.77
2018-05-13T02:04:30.307Z,29.47
2018-05-13T02:06:57.812Z,28.60
2018-05-13T02:09:25.292Z,28.20
2018-05-13T02:11:52.764Z,31.90
2018-05-13T02:14:20.223Z,30.73
2018-05-13T02:16:47.705Z,31.83
2018-05-13T02:19:15.171Z,27.27
2018-05-13T02:21:42.743Z,32.37
2018-05-13T02:24:10.217Z,31.00
2018-05-13T02:26:37.713Z,34.23
2018-05-13T02:29:05.187Z,32.60
2018-05-13T02:31:32.659Z,29.50
2018-05-13T02:34:00.137Z,29.47
2018-05-13T02:36:27.653Z,26.97
2018-05-13T02:38:55.921Z,33.30
2018-05-13T02:41:23.423Z,33.77
2018-05-13T02:43:50.892Z,31.87
2018-05-13T02:46:18.380Z,33.53
2018-05-13T02:48:45.836Z,28.57
2018-05-13T02:51:13.329Z,25.47
2018-05-13T02:53:41.552Z,29.03
2018-05-13T02:56:09.020Z,33.70
2018-05-13T02:58:36.496Z,31.67
2018-05-13T03:01:03.973Z,29.00
2018-05-13T03:03:31.496Z,31.03
2018-05-13T03:05:59.002Z,33.43
2018-05-13T03:08:27.236Z,29.97
2018-05-13T03:10:54.715Z,33.23
2018-05-13T03:13:22.168Z,29.77
2018-05-13T03:15:49.653Z,32.57
2018-05-13T03:18:17.892Z,32.80
2018-05-13T03:20:45.399Z,34.63
2018-05-13T03:23:12.861Z,34.77
2018-05-13T03:25:40.351Z,33.47
2018-05-13T03:28:07.819Z,31.67
2018-05-13T03:30:35.298Z,34.07
2018-05-13T03:33:02.807Z,33.33
2018-05-13T03:35:30.356Z,29.47
2018-05-13T03:37:57.812Z,34.30
2018-05-13T03:40:25.293Z,34.57
2018-05-13T03:42:52.787Z,34.80
2018-05-13T03:45:20.245Z,33.73
2018-05-13T03:47:47.710Z,34.37
2018-05-13T03:50:15.197Z,33.73
2018-05-13T03:52:43.421Z,33.23
2018-05-13T03:55:10.894Z,33.90
2018-05-13T03:57:38.359Z,34.63
2018-05-13T04:00:05.840Z,34.33
2018-05-13T04:02:33.304Z,35.17
2018-05-13T04:05:00.867Z,36.17
2018-05-13T04:07:28.373Z,36.07
2018-05-13T04:10:07.665Z,33.87
2018-05-13T04:12:46.941Z,34.53
2018-05-13T04:15:28.783Z,36.70
2018-05-13T04:17:56.999Z,36.67
2018-05-13T04:20:24.514Z,35.40
2018-05-13T04:22:52.005Z,35.07
2018-05-13T04:25:19.500Z,34.33
2018-05-13T04:27:46.952Z,35.50
2018-05-13T04:30:14.412Z,36.57
2018-05-13T04:32:41.891Z,29.70
2018-05-13T04:35:09.368Z,34.10
2018-05-13T04:37:37.617Z,34.57
2018-05-13T04:40:05.071Z,35.00
2018-05-13T04:42:33.227Z,34.50
2018-05-13T04:45:00.704Z,34.63
2018-05-13T04:47:28.188Z,33.50
2018-05-13T04:49:55.660Z,34.13
2018-05-13T04:52:23.881Z,35.37
2018-05-13T04:54:51.361Z,32.47
2018-05-13T04:57:18.820Z,32.60
2018-05-13T04:59:46.329Z,33.87
2018-05-13T05:02:13.946Z,30.67
2018-05-13T05:04:41.412Z,33.83
2018-05-13T05:07:08.900Z,32.97
2018-05-13T05:09:36.361Z,31.10
2018-05-13T05:12:03.823Z,32.33
2018-05-13T05:14:31.321Z,31.53
2018-05-13T05:16:58.783Z,31.90
2018-05-13T05:19:26.234Z,33.70
2018-05-13T05:21:53.720Z,34.63
2018-05-13T05:24:21.220Z,33.87
2018-05-13T05:26:48.714Z,34.67
2018-05-13T05:29:16.173Z,30.70
2018-05-13T05:31:43.633Z,31.80
2018-05-13T05:34:11.112Z,34.07
2018-05-13T05:36:38.574Z,33.10
2018-05-13T05:39:06.077Z,32.90
2018-05-13T05:41:33.544Z,31.80
2018-05-13T05:44:01.042Z,32.20
2018-05-13T05:46:28.504Z,31.30
2018-05-13T05:48:56.324Z,30.97
2018-05-13T05:51:23.804Z,34.33
2018-05-13T05:53:51.300Z,36.70
2018-05-13T05:56:19.602Z,36.10
2018-05-13T05:58:47.184Z,35.03
2018-05-13T06:01:14.640Z,33.00
2018-05-13T06:03:42.384Z,34.77
2018-05-13T06:06:09.913Z,34.10
2018-05-13T06:08:38.250Z,33.23
2018-05-13T06:11:05.843Z,31.77
2018-05-13T06:13:33.304Z,32.77
2018-05-13T06:16:00.793Z,31.20
2018-05-13T06:18:28.281Z,30.07
2018-05-13T06:20:55.767Z,27.97
2018-05-13T06:23:23.228Z,31.33
2018-05-13T06:25:50.708Z,28.33
2018-05-13T06:28:18.186Z,31.27
2018-05-13T06:30:45.668Z,28.70
2018-05-13T06:33:13.131Z,30.73
2018-05-13T06:35:40.779Z,28.07
2018-05-13T06:38:08.260Z,34.07
2018-05-13T06:40:35.745Z,32.40
2018-05-13T06:43:03.205Z,32.23
2018-05-13T06:45:30.686Z,32.27
2018-05-13T06:47:58.911Z,36.10
2018-05-13T06:50:26.393Z,35.47
2018-05-13T06:52:53.876Z,36.93
2018-05-13T06:55:22.144Z,36.87
2018-05-13T06:57:50.388Z,35.57
2018-05-13T07:00:17.873Z,38.13
2018-05-13T07:02:45.339Z,39.03
2018-05-13T07:05:12.813Z,37.17
2018-05-13T07:07:41.044Z,36.10
2018-05-13T07:10:08.520Z,38.57
2018-05-13T07:12:35.975Z,33.70
2018-05-13T07:15:03.523Z,36.20
2018-05-13T07:17:31.002Z,37.00
2018-05-13T07:19:58.673Z,34.70
2018-05-13T07:22:26.377Z,35.00
2018-05-13T07:24:53.920Z,34.27
2018-05-13T07:27:21.524Z,35.30
2018-05-13T07:29:49.225Z,35.00
2018-05-13T07:32:16.844Z,33.30
2018-05-13T07:34:44.300Z,34.67
2018-05-13T07:37:11.858Z,36.80
2018-05-13T07:39:39.412Z,35.30
2018-05-13T07:42:06.928Z,33.93
2018-05-13T07:44:35.154Z,30.33
2018-05-13T07:47:02.688Z,31.17
2018-05-13T07:49:30.163Z,30.63
2018-05-13T07:51:57.868Z,30.60
2018-05-13T07:54:25.366Z,30.70
2018-05-13T07:56:52.864Z,34.03
2018-05-13T07:59:20.468Z,32.77
2018-05-13T08:01:47.958Z,32.57
2018-05-13T08:04:15.590Z,33.20
2018-05-13T08:06:43.056Z,30.70
2018-05-13T08:09:11.453Z,28.03
2018-05-13T08:11:38.984Z,23.93
2018-05-13T08:14:06.555Z,31.17
2018-05-13T08:16:34.057Z,29.13
2018-05-13T08:19:01.704Z,29.80
2018-05-13T08:21:29.227Z,31.73
2018-05-13T08:23:56.727Z,33.67
2018-05-13T08:26:24.193Z,35.50
2018-05-13T08:28:51.655Z,31.67
2018-05-13T08:31:19.144Z,30.87
2018-05-13T08:33:46.630Z,28.50
2018-05-13T08:36:14.876Z,27.10
2018-05-13T08:38:42.348Z,26.50
2018-05-13T08:41:10.614Z,29.53
2018-05-13T08:43:38.077Z,27.50
2018-05-13T08:46:05.569Z,31.40
2018-05-13T08:48:33.045Z,25.77
2018-05-13T08:51:00.524Z,25.57
2018-05-13T08:53:27.997Z,29.63
2018-05-13T08:55:55.480Z,27.77
